Time,TemperatureF,DewpointF,PressureIn,WindDirection,WindDirectionDegrees,WindSpeedMPH,WindSpeedGustMPH,Humidity,HourlyPrecipIn,Conditions,Clouds,dailyrainin,SolarRadiationWatts/m^2,SoftwareType,DateUTC
2013-09-03 00:01:00,55.5,52.9,29.70,ENE,68,0.0,-999.0,91,0.00,,,0.00,0,Wunderground v.1.15,2013-09-02 14:01:00,
2013-09-03 00:05:00,55.7,53.1,29.70,ENE,70,0.0,0.0,91,0.00,,,0.00,0,Wunderground v.1.15,2013-09-02 14:05:00,
2013-09-03 00:06:00,55.5,52.9,29.70,ENE,68,0.0,-999.0,91,0.00,,,0.00,0,Wunderground v.1.15,2013-09-02 14:06:00,
2013-09-03 00:10:00,55.6,53.0,29.70,ENE,69,0.0,0.0,91,0.00,,,0.00,0,Wunderground v.1.15,2013-09-02 14:10:00,
2013-09-03 00:11:00,55.5,52.9,29.70,ENE,68,0.0,-999.0,91,0.00,,,0.00,0,Wunderground v.1.15,2013-09-02 14:11:00,
2013-09-03 00:16:00,55.5,52.9,29.70,ENE,68,0.0,-999.0,91,0.00,,,0.00,0,Wunderground v.1.15,2013-09-02 14:16:00,
2013-09-03 00:20:00,55.5,52.9,29.70,ENE,69,0.0,0.0,91,0.00,,,0.00,0,Wunderground v.1.15,2013-09-02 14:20:00,
2013-09-03 00:21:00,55.5,52.9,29.70,ENE,68,0.0,-999.0,91,0.00,,,0.00,0,Wunderground v.1.15,2013-09-02 14:21:00,
2013-09-03 00:25:00,55.5,52.9,29.70,ENE,70,0.0,0.0,91,0.00,,,0.00,0,Wunderground v.1.15,2013-09-02 14:25:00,
2013-09-03 00:26:00,55.5,52.9,29.70,ENE,68,0.0,-999.0,91,0.00,,,0.00,0,Wunderground v.1.15,2013-09-02 14:26:00,
2013-09-03 00:30:00,55.4,52.8,29.70,ENE,69,0.0,0.0,91,0.00,,,0.00,0,Wunderground v.1.15,2013-09-02 14:30:00,
2013-09-03 00:31:00,55.5,52.9,29.70,ENE,68,0.0,-999.0,91,0.00,,,0.00,0,Wunderground v.1.15,2013-09-02 14:31:00,
2013-09-03 00:36:00,55.5,52.9,29.70,ENE,68,0.0,-999.0,91,0.00,,,0.00,0,Wunderground v.1.15,2013-09-02 14:36:00,
2013-09-03 00:40:00,55.3,52.7,29.70,ENE,70,0.0,0.0,91,0.00,,,0.00,0,Wunderground v.1.15,2013-09-02 14:40:00,
2013-09-03 00:41:00,55.5,52.9,29.70,ENE,68,0.0,-999.0,91,0.00,,,0.00,0,Wunderground v.1.15,2013-09-02 14:41:00,
2013-09-03 00:45:00,55.3,52.7,29.70,ENE,70,0.0,0.0,91,0.00,,,0.00,0,Wunderground v.1.15,2013-09-02 14:45:00,
2013-09-03 00:46:00,55.3,53.0,29.70,N/A,-737280,0.0,-999.0,92,0.00,,,0.00,0,Wunderground v.1.15,2013-09-02 14:46:00,
2013-09-03 00:51:00,55.3,53.0,29.70,N/A,-737280,0.0,-999.0,92,0.00,,,0.00,0,Wunderground v.1.15,2013-09-02 14:51:00,
2013-09-03 00:55:00,55.2,52.9,29.70,ENE,70,0.0,0.0,92,0.00,,,0.00,0,Wunderground v.1.15,2013-09-02 14:55:00,
2013-09-03 00:56:00,55.3,53.0,29.70,N/A,-737280,0.0,-999.0,92,0.00,,,0.00,0,Wunderground v.1.15,2013-09-02 14:56:00,
2013-09-03 01:00:00,55.2,52.9,29.70,ENE,69,0.0,0.0,92,0.00,,,0.00,0,Wunderground v.1.15,2013-09-02 15:00:00,
2013-09-03 01:01:00,55.3,53.0,29.70,N/A,-737280,0.0,-999.0,92,0.00,,,0.00,0,Wunderground v.1.15,2013-09-02 15:01:00,
2013-09-03 01:05:00,55.2,52.9,29.70,ENE,69,0.0,0.0,92,0.00,,,0.00,0,Wunderground v.1.15,2013-09-02 15:05:00,
2013-09-03 01:06:00,55.3,53.0,29.70,N/A,-737280,0.0,-999.0,92,0.00,,,0.00,0,Wunderground v.1.15,2013-09-02 15:06:00,
2013-09-03 01:10:00,55.2,52.9,29.70,ENE,69,0.0,0.0,92,0.00,,,0.00,0,Wunderground v.1.15,2013-09-02 15:10:00,
2013-09-03 01:11:00,55.3,53.0,29.70,N/A,-737280,0.0,-999.0,92,0.00,,,0.00,0,Wunderground v.1.15,2013-09-02 15:11:00,
2013-09-03 01:16:00,55.2,52.9,29.70,N/A,-737280,0.0,-999.0,92,0.00,,,0.00,0,Wunderground v.1.15,2013-09-02 15:16:00,
2013-09-03 01:20:00,55.2,52.9,29.70,ENE,69,0.0,0.0,92,0.00,,,0.00,0,Wunderground v.1.15,2013-09-02 15:20:00,
2013-09-03 01:21:00,55.2,52.9,29.70,N/A,-737280,0.0,-999.0,92,0.00,,,0.00,0,Wunderground v.1.15,2013-09-02 15:21:00,
2013-09-03 01:25:00,55.2,52.9,29.70,ENE,70,0.0,0.0,92,0.00,,,0.00,0,Wunderground v.1.15,2013-09-02 15:25:00,
2013-09-03 01:26:00,55.2,52.9,29.70,N/A,-737280,0.0,-999.0,92,0.00,,,0.00,0,Wunderground v.1.15,2013-09-02 15:26:00,
2013-09-03 01:30:00,55.2,52.9,29.70,ENE,70,0.0,0.0,92,0.00,,,0.00,0,Wunderground v.1.15,2013-09-02 15:30:00,
2013-09-03 01:31:00,55.2,52.9,29.70,N/A,-737280,0.0,-999.0,92,0.00,,,0.00,0,Wunderground v.1.15,2013-09-02 15:31:00,
2013-09-03 01:36:00,55.2,52.9,29.70,N/A,-737280,0.0,-999.0,92,0.00,,,0.00,0,Wunderground v.1.15,2013-09-02 15:36:00,
2013-09-03 01:41:00,55.2,52.9,29.70,N/A,-737280,0.0,-999.0,92,0.00,,,0.00,0,Wunderground v.1.15,2013-09-02 15:41:00,
2013-09-03 01:46:00,55.0,52.7,29.69,N/A,-737280,0.0,-999.0,92,0.00,,,0.00,0,Wunderground v.1.15,2013-09-02 15:46:00,
2013-09-03 01:51:00,55.0,52.7,29.69,N/A,-737280,0.0,-999.0,92,0.00,,,0.00,0,Wunderground v.1.15,2013-09-02 15:51:00,
2013-09-03 01:56:00,55.0,52.7,29.69,N/A,-737280,0.0,-999.0,92,0.00,,,0.00,0,Wunderground v.1.15,2013-09-02 15:56:00,
2013-09-03 02:01:00,55.0,52.7,29.69,N/A,-737280,0.0,-999.0,92,0.00,,,0.00,0,Wunderground v.1.15,2013-09-02 16:01:00,
2013-09-03 02:06:00,55.0,52.7,29.69,N/A,-737280,0.0,-999.0,92,0.00,,,0.00,0,Wunderground v.1.15,2013-09-02 16:06:00,
2013-09-03 02:11:00,55.0,52.7,29.69,N/A,-737280,0.0,-999.0,92,0.00,,,0.00,0,Wunderground v.1.15,2013-09-02 16:11:00,
2013-09-03 02:16:00,54.8,52.5,29.69,ENE,68,0.0,-999.0,92,0.00,,,0.00,0,Wunderground v.1.15,2013-09-02 16:16:00,
2013-09-03 02:21:00,54.8,52.5,29.69,ENE,68,0.0,-999.0,92,0.00,,,0.00,0,Wunderground v.1.15,2013-09-02 16:21:00,
2013-09-03 02:26:00,54.8,52.5,29.69,ENE,68,0.0,-999.0,92,0.00,,,0.00,0,Wunderground v.1.15,2013-09-02 16:26:00,
2013-09-03 02:31:00,54.8,52.5,29.69,ENE,68,0.0,-999.0,92,0.00,,,0.00,0,Wunderground v.1.15,2013-09-02 16:31:00,
2013-09-03 02:36:00,54.8,52.5,29.69,ENE,68,0.0,-999.0,92,0.00,,,0.00,0,Wunderground v.1.15,2013-09-02 16:36:00,
2013-09-03 02:41:00,54.8,52.5,29.69,ENE,68,0.0,-999.0,92,0.00,,,0.00,0,Wunderground v.1.15,2013-09-02 16:41:00,
2013-09-03 02:46:00,54.8,52.5,29.68,ENE,68,0.0,-999.0,92,0.00,,,0.00,0,Wunderground v.1.15,2013-09-02 16:46:00,
2013-09-03 02:51:00,54.8,52.5,29.68,ENE,68,0.0,-999.0,92,0.00,,,0.00,0,Wunderground v.1.15,2013-09-02 16:51:00,
2013-09-03 02:56:00,54.8,52.5,29.68,ENE,68,0.0,-999.0,92,0.00,,,0.00,0,Wunderground v.1.15,2013-09-02 16:56:00,
2013-09-03 03:01:00,54.8,52.5,29.68,ENE,68,0.0,-999.0,92,0.00,,,0.00,0,Wunderground v.1.15,2013-09-02 17:01:00,
2013-09-03 03:06:00,54.8,52.5,29.68,ENE,68,0.0,-999.0,92,0.00,,,0.00,0,Wunderground v.1.15,2013-09-02 17:06:00,
2013-09-03 03:11:00,54.8,52.5,29.68,ENE,68,0.0,-999.0,92,0.00,,,0.00,0,Wunderground v.1.15,2013-09-02 17:11:00,
2013-09-03 03:16:00,53.8,51.5,29.68,ENE,68,0.0,-999.0,92,0.00,,,0.00,0,Wunderground v.1.15,2013-09-02 17:16:00,
2013-09-03 03:21:00,53.8,51.5,29.68,ENE,68,0.0,-999.0,92,0.00,,,0.00,0,Wunderground v.1.15,2013-09-02 17:21:00,
2013-09-03 03:26:00,53.8,51.5,29.68,ENE,68,0.0,-999.0,92,0.00,,,0.00,0,Wunderground v.1.15,2013-09-02 17:26:00,
2013-09-03 03:31:00,53.8,51.5,29.68,ENE,68,0.0,-999.0,92,0.00,,,0.00,0,Wunderground v.1.15,2013-09-02 17:31:00,
2013-09-03 03:36:00,53.8,51.5,29.68,ENE,68,0.0,-999.0,92,0.00,,,0.00,0,Wunderground v.1.15,2013-09-02 17:36:00,
2013-09-03 03:41:00,53.8,51.5,29.68,ENE,68,0.0,-999.0,92,0.00,,,0.00,0,Wunderground v.1.15,2013-09-02 17:41:00,
2013-09-03 03:46:00,53.6,51.6,29.68,ENE,68,0.0,-999.0,93,0.00,,,0.00,0,Wunderground v.1.15,2013-09-02 17:46:00,
2013-09-03 03:51:00,53.6,51.6,29.68,ENE,68,0.0,-999.0,93,0.00,,,0.00,0,Wunderground v.1.15,2013-09-02 17:51:00,
2013-09-03 03:56:00,53.6,51.6,29.68,ENE,68,0.0,-999.0,93,0.00,,,0.00,0,Wunderground v.1.15,2013-09-02 17:56:00,
2013-09-03 04:01:00,53.6,51.6,29.68,ENE,68,0.0,-999.0,93,0.00,,,0.00,0,Wunderground v.1.15,2013-09-02 18:01:00,
2013-09-03 04:06:00,53.6,51.6,29.68,ENE,68,0.0,-999.0,93,0.00,,,0.00,0,Wunderground v.1.15,2013-09-02 18:06:00,
2013-09-03 04:11:00,53.6,51.6,29.68,ENE,68,0.0,-999.0,93,0.00,,,0.00,0,Wunderground v.1.15,2013-09-02 18:11:00,
2013-09-03 04:16:00,54.3,52.6,29.69,ENE,68,0.0,-999.0,94,0.00,,,0.00,0,Wunderground v.1.15,2013-09-02 18:16:00,
2013-09-03 04:21:00,54.3,52.6,29.69,ENE,68,0.0,-999.0,94,0.00,,,0.00,0,Wunderground v.1.15,2013-09-02 18:21:00,
2013-09-03 04:26:00,54.3,52.6,29.69,ENE,68,0.0,-999.0,94,0.00,,,0.00,0,Wunderground v.1.15,2013-09-02 18:26:00,
2013-09-03 04:31:00,54.3,52.6,29.69,ENE,68,0.0,-999.0,94,0.00,,,0.00,0,Wunderground v.1.15,2013-09-02 18:31:00,
2013-09-03 04:36:00,54.3,52.6,29.69,ENE,68,0.0,-999.0,94,0.00,,,0.00,0,Wunderground v.1.15,2013-09-02 18:36:00,
2013-09-03 04:41:00,54.3,52.6,29.69,ENE,68,0.0,-999.0,94,0.00,,,0.00,0,Wunderground v.1.15,2013-09-02 18:41:00,
2013-09-03 04:46:00,55.2,53.2,29.69,ENE,68,0.0,-999.0,93,0.00,,,0.00,0,Wunderground v.1.15,2013-09-02 18:46:00,
2013-09-03 04:51:00,55.2,53.2,29.69,ENE,68,0.0,-999.0,93,0.00,,,0.00,0,Wunderground v.1.15,2013-09-02 18:51:00,
2013-09-03 04:56:00,55.2,53.2,29.69,ENE,68,0.0,-999.0,93,0.00,,,0.00,0,Wunderground v.1.15,2013-09-02 18:56:00,
2013-09-03 05:01:00,55.2,53.2,29.69,ENE,68,0.0,-999.0,93,0.00,,,0.00,0,Wunderground v.1.15,2013-09-02 19:01:00,
2013-09-03 05:06:00,55.2,53.2,29.69,ENE,68,0.0,-999.0,93,0.00,,,0.00,0,Wunderground v.1.15,2013-09-02 19:06:00,
2013-09-03 05:11:00,55.2,53.2,29.69,ENE,68,0.0,-999.0,93,0.00,,,0.00,0,Wunderground v.1.15,2013-09-02 19:11:00,
2013-09-03 05:16:00,55.0,53.0,29.70,ENE,68,0.0,-999.0,93,0.00,,,0.00,0,Wunderground v.1.15,2013-09-02 19:16:00,
2013-09-03 05:21:00,55.0,53.0,29.70,ENE,68,0.0,-999.0,93,0.00,,,0.00,0,Wunderground v.1.15,2013-09-02 19:21:00,
2013-09-03 05:26:00,55.0,53.0,29.70,ENE,68,0.0,-999.0,93,0.00,,,0.00,0,Wunderground v.1.15,2013-09-02 19:26:00,
2013-09-03 05:31:00,55.0,53.0,29.70,ENE,68,0.0,-999.0,93,0.00,,,0.00,0,Wunderground v.1.15,2013-09-02 19:31:00,
2013-09-03 05:36:00,55.0,53.0,29.70,ENE,68,0.0,-999.0,93,0.00,,,0.00,0,Wunderground v.1.15,2013-09-02 19:36:00,
2013-09-03 05:41:00,55.0,53.0,29.70,ENE,68,0.0,-999.0,93,0.00,,,0.00,0,Wunderground v.1.15,2013-09-02 19:41:00,
2013-09-03 05:46:00,55.1,53.1,29.70,ENE,68,0.0,-999.0,93,0.00,,,0.00,0,Wunderground v.1.15,2013-09-02 19:46:00,
2013-09-03 05:51:00,55.1,53.1,29.70,ENE,68,0.0,-999.0,93,0.00,,,0.00,0,Wunderground v.1.15,2013-09-02 19:51:00,
2013-09-03 05:56:00,55.1,53.1,29.70,ENE,68,0.0,-999.0,93,0.00,,,0.00,0,Wunderground v.1.15,2013-09-02 19:56:00,
2013-09-03 06:01:00,55.1,53.1,29.70,ENE,68,0.0,-999.0,93,0.00,,,0.00,0,Wunderground v.1.15,2013-09-02 20:01:00,
2013-09-03 06:06:00,55.1,53.1,29.70,ENE,68,0.0,-999.0,93,0.00,,,0.00,0,Wunderground v.1.15,2013-09-02 20:06:00,
2013-09-03 06:11:00,55.1,53.1,29.70,ENE,68,0.0,-999.0,93,0.00,,,0.00,0,Wunderground v.1.15,2013-09-02 20:11:00,
2013-09-03 06:16:00,54.2,52.2,29.71,N/A,-737280,0.0,-999.0,93,0.00,,,0.00,8,Wunderground v.1.15,2013-09-02 20:16:00,
2013-09-03 06:21:00,54.2,52.2,29.71,N/A,-737280,0.0,-999.0,93,0.00,,,0.00,8,Wunderground v.1.15,2013-09-02 20:21:00,
2013-09-03 06:26:00,54.2,52.2,29.71,N/A,-737280,0.0,-999.0,93,0.00,,,0.00,8,Wunderground v.1.15,2013-09-02 20:26:00,
2013-09-03 06:31:00,54.2,52.2,29.71,N/A,-737280,0.0,-999.0,93,0.00,,,0.00,8,Wunderground v.1.15,2013-09-02 20:31:00,
2013-09-03 06:36:00,54.2,52.2,29.71,N/A,-737280,0.0,-999.0,93,0.00,,,0.00,8,Wunderground v.1.15,2013-09-02 20:36:00,
2013-09-03 06:41:00,54.2,52.2,29.71,N/A,-737280,0.0,-999.0,93,0.00,,,0.00,8,Wunderground v.1.15,2013-09-02 20:41:00,
2013-09-03 06:46:00,53.9,52.2,29.73,N/A,-737280,0.0,-999.0,94,0.00,,,0.00,24,Wunderground v.1.15,2013-09-02 20:46:00,
2013-09-03 06:51:00,53.9,52.2,29.73,N/A,-737280,0.0,-999.0,94,0.00,,,0.00,24,Wunderground v.1.15,2013-09-02 20:51:00,
2013-09-03 06:56:00,53.9,52.2,29.73,N/A,-737280,0.0,-999.0,94,0.00,,,0.00,24,Wunderground v.1.15,2013-09-02 20:56:00,
2013-09-03 07:01:00,53.9,52.2,29.73,N/A,-737280,0.0,-999.0,94,0.00,,,0.00,24,Wunderground v.1.15,2013-09-02 21:01:00,
2013-09-03 07:06:00,53.9,52.2,29.73,N/A,-737280,0.0,-999.0,94,0.00,,,0.00,24,Wunderground v.1.15,2013-09-02 21:06:00,
2013-09-03 07:11:00,53.9,52.2,29.73,N/A,-737280,0.0,-999.0,94,0.00,,,0.00,24,Wunderground v.1.15,2013-09-02 21:11:00,
2013-09-03 07:16:00,55.0,53.3,29.74,ENE,68,0.0,-999.0,94,0.00,,,0.00,152,Wunderground v.1.15,2013-09-02 21:16:00,
2013-09-03 07:21:00,55.0,53.3,29.74,ENE,68,0.0,-999.0,94,0.00,,,0.00,152,Wunderground v.1.15,2013-09-02 21:21:00,
2013-09-03 07:26:00,55.0,53.3,29.74,ENE,68,0.0,-999.0,94,0.00,,,0.00,152,Wunderground v.1.15,2013-09-02 21:26:00,
2013-09-03 07:31:00,55.0,53.3,29.74,ENE,68,0.0,-999.0,94,0.00,,,0.00,152,Wunderground v.1.15,2013-09-02 21:31:00,
2013-09-03 07:36:00,55.0,53.3,29.74,ENE,68,0.0,-999.0,94,0.00,,,0.00,152,Wunderground v.1.15,2013-09-02 21:36:00,
2013-09-03 07:41:00,55.0,53.3,29.74,ENE,68,0.0,-999.0,94,0.00,,,0.00,152,Wunderground v.1.15,2013-09-02 21:41:00,
2013-09-03 07:46:00,58.1,56.1,29.75,ENE,68,0.0,-999.0,93,0.00,,,0.00,264,Wunderground v.1.15,2013-09-02 21:46:00,
2013-09-03 07:51:00,58.1,56.1,29.75,ENE,68,0.0,-999.0,93,0.00,,,0.00,264,Wunderground v.1.15,2013-09-02 21:51:00,
2013-09-03 07:55:00,58.8,57.1,29.75,ENE,71,0.0,0.0,94,0.00,,,0.00,288,Wunderground v.1.15,2013-09-02 21:55:00,
2013-09-03 07:56:00,58.1,56.1,29.75,ENE,68,0.0,-999.0,93,0.00,,,0.00,264,Wunderground v.1.15,2013-09-02 21:56:00,
2013-09-03 08:00:00,59.9,58.2,29.75,ENE,71,0.0,0.0,94,0.00,,,0.00,306,Wunderground v.1.15,2013-09-02 22:00:00,
2013-09-03 08:01:00,58.1,56.1,29.75,ENE,68,0.0,-999.0,93,0.00,,,0.00,264,Wunderground v.1.15,2013-09-02 22:01:00,
2013-09-03 08:06:00,58.1,56.1,29.75,ENE,68,0.0,-999.0,93,0.00,,,0.00,264,Wunderground v.1.15,2013-09-02 22:06:00,
2013-09-03 08:10:00,60.7,58.4,29.76,ENE,71,0.0,0.0,92,0.00,,,0.00,346,Wunderground v.1.15,2013-09-02 22:10:00,
2013-09-03 08:11:00,58.1,56.1,29.75,ENE,68,0.0,-999.0,93,0.00,,,0.00,264,Wunderground v.1.15,2013-09-02 22:11:00,
2013-09-03 08:15:00,60.8,57.8,29.76,SSW,211,0.0,0.0,90,0.00,,,0.00,371,Wunderground v.1.15,2013-09-02 22:15:00,
2013-09-03 08:16:00,61.1,56.9,29.76,SSW,203,0.0,-999.0,86,0.00,,,0.00,375,Wunderground v.1.15,2013-09-02 22:16:00,
2013-09-03 08:21:00,61.1,56.9,29.76,SSW,203,0.0,-999.0,86,0.00,,,0.00,375,Wunderground v.1.15,2013-09-02 22:21:00,
2013-09-03 08:25:00,61.7,58.1,29.76,SSW,211,0.0,1.0,88,0.00,,,0.00,404,Wunderground v.1.15,2013-09-02 22:25:00,
2013-09-03 08:26:00,61.1,56.9,29.76,SSW,203,0.0,-999.0,86,0.00,,,0.00,375,Wunderground v.1.15,2013-09-02 22:26:00,
2013-09-03 08:30:00,62.5,57.9,29.76,SSW,211,0.0,0.0,85,0.00,,,0.00,420,Wunderground v.1.15,2013-09-02 22:30:00,
2013-09-03 08:31:00,61.1,56.9,29.76,SSW,203,0.0,-999.0,86,0.00,,,0.00,375,Wunderground v.1.15,2013-09-02 22:31:00,
2013-09-03 08:36:00,61.1,56.9,29.76,SSW,203,0.0,-999.0,86,0.00,,,0.00,375,Wunderground v.1.15,2013-09-02 22:36:00,
2013-09-03 08:40:00,64.0,58.7,29.76,SSW,211,0.0,0.0,83,0.00,,,0.00,450,Wunderground v.1.15,2013-09-02 22:40:00,
2013-09-03 08:41:00,61.1,56.9,29.76,SSW,203,0.0,-999.0,86,0.00,,,0.00,375,Wunderground v.1.15,2013-09-02 22:41:00,
2013-09-03 08:46:00,64.4,57.7,29.76,SE,135,0.0,-999.0,79,0.00,,,0.00,468,Wunderground v.1.15,2013-09-02 22:46:00,
2013-09-03 08:50:00,65.0,59.0,29.77,SE,136,0.0,1.0,81,0.00,,,0.00,475,Wunderground v.1.15,2013-09-02 22:50:00,
2013-09-03 08:51:00,64.4,57.7,29.76,SE,135,0.0,-999.0,79,0.00,,,0.00,468,Wunderground v.1.15,2013-09-02 22:51:00,
2013-09-03 08:55:00,65.4,59.1,29.76,SE,136,0.0,1.0,80,0.00,,,0.00,490,Wunderground v.1.15,2013-09-02 22:55:00,
2013-09-03 08:56:00,64.4,57.7,29.76,SE,135,0.0,-999.0,79,0.00,,,0.00,468,Wunderground v.1.15,2013-09-02 22:56:00,
2013-09-03 09:00:00,65.4,59.1,29.76,ESE,114,0.0,2.0,80,0.00,,,0.00,503,Wunderground v.1.15,2013-09-02 23:00:00,
2013-09-03 09:01:00,64.4,57.7,29.76,SE,135,0.0,-999.0,79,0.00,,,0.00,468,Wunderground v.1.15,2013-09-02 23:01:00,
2013-09-03 09:05:00,66.3,59.2,29.76,SE,127,0.0,2.0,78,0.00,,,0.00,519,Wunderground v.1.15,2013-09-02 23:05:00,
2013-09-03 09:06:00,64.4,57.7,29.76,SE,135,0.0,-999.0,79,0.00,,,0.00,468,Wunderground v.1.15,2013-09-02 23:06:00,
2013-09-03 09:11:00,64.4,57.7,29.76,SE,135,0.0,-999.0,79,0.00,,,0.00,468,Wunderground v.1.15,2013-09-02 23:11:00,
2013-09-03 09:15:00,66.4,58.6,29.76,ESE,121,0.0,2.0,76,0.00,,,0.00,547,Wunderground v.1.15,2013-09-02 23:15:00,
2013-09-03 09:16:00,66.2,58.0,29.77,ESE,113,1.0,-999.0,75,0.00,,,0.00,556,Wunderground v.1.15,2013-09-02 23:16:00,
2013-09-03 09:20:00,65.9,58.5,29.76,SE,144,1.0,1.0,77,0.00,,,0.00,563,Wunderground v.1.15,2013-09-02 23:20:00,
2013-09-03 09:21:00,66.2,58.0,29.77,ESE,113,1.0,-999.0,75,0.00,,,0.00,556,Wunderground v.1.15,2013-09-02 23:21:00,
2013-09-03 09:25:00,66.2,58.8,29.76,NE,44,1.0,1.0,77,0.00,,,0.00,580,Wunderground v.1.15,2013-09-02 23:25:00,
2013-09-03 09:26:00,66.2,58.0,29.77,ESE,113,1.0,-999.0,75,0.00,,,0.00,556,Wunderground v.1.15,2013-09-02 23:26:00,
2013-09-03 09:31:00,66.2,58.0,29.77,ESE,113,1.0,-999.0,75,0.00,,,0.00,556,Wunderground v.1.15,2013-09-02 23:31:00,
2013-09-03 09:35:00,66.8,58.6,29.77,SE,144,1.0,1.0,75,0.00,,,0.00,151,Wunderground v.1.15,2013-09-02 23:35:00,
2013-09-03 09:36:00,66.2,58.0,29.77,ESE,113,1.0,-999.0,75,0.00,,,0.00,556,Wunderground v.1.15,2013-09-02 23:36:00,
2013-09-03 09:40:00,66.3,58.1,29.77,SSW,210,1.0,1.0,75,0.00,,,0.00,650,Wunderground v.1.15,2013-09-02 23:40:00,
2013-09-03 09:41:00,66.2,58.0,29.77,ESE,113,1.0,-999.0,75,0.00,,,0.00,556,Wunderground v.1.15,2013-09-02 23:41:00,
2013-09-03 09:45:00,67.6,59.0,29.76,SW,231,1.0,3.0,74,0.00,,,0.00,666,Wunderground v.1.15,2013-09-02 23:45:00,
2013-09-03 09:46:00,67.3,56.8,29.76,SW,225,1.0,-999.0,69,0.00,,,0.00,661,Wunderground v.1.15,2013-09-02 23:46:00,
2013-09-03 09:50:00,67.5,58.5,29.77,SE,129,1.0,1.0,73,0.00,,,0.00,675,Wunderground v.1.15,2013-09-02 23:50:00,
2013-09-03 09:51:00,67.3,56.8,29.76,SW,225,1.0,-999.0,69,0.00,,,0.00,661,Wunderground v.1.15,2013-09-02 23:51:00,
2013-09-03 09:56:00,67.3,56.8,29.76,SW,225,1.0,-999.0,69,0.00,,,0.00,661,Wunderground v.1.15,2013-09-02 23:56:00,
2013-09-03 10:00:00,68.4,58.2,29.76,NE,34,1.0,2.0,70,0.00,,,0.00,765,Wunderground v.1.15,2013-09-03 00:00:00,
2013-09-03 10:01:00,67.3,56.8,29.76,SW,225,1.0,-999.0,69,0.00,,,0.00,661,Wunderground v.1.15,2013-09-03 00:01:00,
2013-09-03 10:05:00,68.3,57.7,29.76,SE,141,1.0,2.0,69,0.00,,,0.00,780,Wunderground v.1.15,2013-09-03 00:05:00,
2013-09-03 10:06:00,67.3,56.8,29.76,SW,225,1.0,-999.0,69,0.00,,,0.00,661,Wunderground v.1.15,2013-09-03 00:06:00,
2013-09-03 10:11:00,67.3,56.8,29.76,SW,225,1.0,-999.0,69,0.00,,,0.00,661,Wunderground v.1.15,2013-09-03 00:11:00,
2013-09-03 10:15:00,68.4,57.8,29.76,East,87,1.0,1.0,69,0.00,,,0.00,754,Wunderground v.1.15,2013-09-03 00:15:00,
2013-09-03 10:16:00,69.6,55.1,29.76,NNE,23,1.0,-999.0,60,0.00,,,0.00,726,Wunderground v.1.15,2013-09-03 00:16:00,
2013-09-03 10:20:00,70.0,59.4,29.76,North,11,2.0,2.0,69,0.00,,,0.00,728,Wunderground v.1.15,2013-09-03 00:20:00,
2013-09-03 10:21:00,69.6,55.1,29.76,NNE,23,1.0,-999.0,60,0.00,,,0.00,726,Wunderground v.1.15,2013-09-03 00:21:00,
2013-09-03 10:25:00,71.3,57.6,29.76,NW,306,1.0,2.0,62,0.00,,,0.00,726,Wunderground v.1.15,2013-09-03 00:25:00,
2013-09-03 10:26:00,69.6,55.1,29.76,NNE,23,1.0,-999.0,60,0.00,,,0.00,726,Wunderground v.1.15,2013-09-03 00:26:00,
2013-09-03 10:31:00,69.6,55.1,29.76,NNE,23,1.0,-999.0,60,0.00,,,0.00,726,Wunderground v.1.15,2013-09-03 00:31:00,
2013-09-03 10:35:00,70.3,55.8,29.76,ENE,70,2.0,5.0,60,0.00,,,0.00,779,Wunderground v.1.15,2013-09-03 00:35:00,
2013-09-03 10:36:00,69.6,55.1,29.76,NNE,23,1.0,-999.0,60,0.00,,,0.00,726,Wunderground v.1.15,2013-09-03 00:36:00,
2013-09-03 10:40:00,69.8,56.2,29.76,ESE,120,2.0,2.0,62,0.00,,,0.00,770,Wunderground v.1.15,2013-09-03 00:40:00,
2013-09-03 10:41:00,69.6,55.1,29.76,NNE,23,1.0,-999.0,60,0.00,,,0.00,726,Wunderground v.1.15,2013-09-03 00:41:00,
2013-09-03 10:45:00,70.8,56.2,29.76,NE,47,1.0,2.0,60,0.00,,,0.00,754,Wunderground v.1.15,2013-09-03 00:45:00,
2013-09-03 10:46:00,70.9,55.9,29.76,ENE,68,2.0,-999.0,59,0.00,,,0.00,672,Wunderground v.1.15,2013-09-03 00:46:00,
2013-09-03 10:51:00,70.9,55.9,29.76,ENE,68,2.0,-999.0,59,0.00,,,0.00,672,Wunderground v.1.15,2013-09-03 00:51:00,
2013-09-03 10:55:00,71.8,56.7,29.76,NNE,26,1.0,2.0,59,0.00,,,0.00,759,Wunderground v.1.15,2013-09-03 00:55:00,
2013-09-03 10:56:00,70.9,55.9,29.76,ENE,68,2.0,-999.0,59,0.00,,,0.00,672,Wunderground v.1.15,2013-09-03 00:56:00,
2013-09-03 11:00:00,71.5,55.9,29.76,East,84,2.0,4.0,58,0.00,,,0.00,243,Wunderground v.1.15,2013-09-03 01:00:00,
2013-09-03 11:01:00,70.9,55.9,29.76,ENE,68,2.0,-999.0,59,0.00,,,0.00,672,Wunderground v.1.15,2013-09-03 01:01:00,
2013-09-03 11:05:00,70.9,56.3,29.76,ENE,64,3.0,4.0,60,0.00,,,0.00,134,Wunderground v.1.15,2013-09-03 01:05:00,
2013-09-03 11:06:00,70.9,55.9,29.76,ENE,68,2.0,-999.0,59,0.00,,,0.00,672,Wunderground v.1.15,2013-09-03 01:06:00,
2013-09-03 11:10:00,70.3,56.2,29.76,ENE,69,2.0,3.0,61,0.00,,,0.00,169,Wunderground v.1.15,2013-09-03 01:10:00,
2013-09-03 11:11:00,70.9,55.9,29.76,ENE,68,2.0,-999.0,59,0.00,,,0.00,672,Wunderground v.1.15,2013-09-03 01:11:00,
2013-09-03 11:15:00,70.7,56.6,29.75,ESE,112,1.0,3.0,61,0.00,,,0.00,139,Wunderground v.1.15,2013-09-03 01:15:00,
2013-09-03 11:16:00,70.5,55.0,29.75,NE,45,2.0,-999.0,58,0.00,,,0.00,610,Wunderground v.1.15,2013-09-03 01:16:00,
2013-09-03 11:21:00,70.5,55.0,29.75,NE,45,2.0,-999.0,58,0.00,,,0.00,610,Wunderground v.1.15,2013-09-03 01:21:00,
2013-09-03 11:25:00,70.0,56.4,29.75,SE,129,1.0,1.0,62,0.00,,,0.00,812,Wunderground v.1.15,2013-09-03 01:25:00,
2013-09-03 11:26:00,70.5,55.0,29.75,NE,45,2.0,-999.0,58,0.00,,,0.00,610,Wunderground v.1.15,2013-09-03 01:26:00,
2013-09-03 11:30:00,70.7,54.7,29.75,ENE,59,2.0,4.0,57,0.00,,,0.00,714,Wunderground v.1.15,2013-09-03 01:30:00,
2013-09-03 11:31:00,70.5,55.0,29.75,NE,45,2.0,-999.0,58,0.00,,,0.00,610,Wunderground v.1.15,2013-09-03 01:31:00,
2013-09-03 11:36:00,70.5,55.0,29.75,NE,45,2.0,-999.0,58,0.00,,,0.00,610,Wunderground v.1.15,2013-09-03 01:36:00,
2013-09-03 11:40:00,72.0,55.9,29.75,NNE,26,2.0,2.0,57,0.00,,,0.00,737,Wunderground v.1.15,2013-09-03 01:40:00,
2013-09-03 11:41:00,70.5,55.0,29.75,NE,45,2.0,-999.0,58,0.00,,,0.00,610,Wunderground v.1.15,2013-09-03 01:41:00,
2013-09-03 11:45:00,71.6,55.1,29.75,SSE,163,2.0,2.0,56,0.00,,,0.00,768,Wunderground v.1.15,2013-09-03 01:45:00,
2013-09-03 11:46:00,71.5,56.4,29.74,NE,45,2.0,-999.0,59,0.00,,,0.00,772,Wunderground v.1.15,2013-09-03 01:46:00,
2013-09-03 11:50:00,72.1,56.5,29.74,ENE,61,2.0,2.0,58,0.00,,,0.00,759,Wunderground v.1.15,2013-09-03 01:50:00,
2013-09-03 11:51:00,71.5,56.4,29.74,NE,45,2.0,-999.0,59,0.00,,,0.00,772,Wunderground v.1.15,2013-09-03 01:51:00,
2013-09-03 11:55:00,71.8,55.7,29.74,NE,45,2.0,2.0,57,0.00,,,0.00,772,Wunderground v.1.15,2013-09-03 01:55:00,
2013-09-03 11:56:00,71.5,56.4,29.74,NE,45,2.0,-999.0,59,0.00,,,0.00,772,Wunderground v.1.15,2013-09-03 01:56:00,
2013-09-03 12:01:00,71.5,56.4,29.74,NE,45,2.0,-999.0,59,0.00,,,0.00,772,Wunderground v.1.15,2013-09-03 02:01:00,
2013-09-03 12:05:00,71.1,56.0,29.74,NE,44,3.0,3.0,59,0.00,,,0.00,763,Wunderground v.1.15,2013-09-03 02:05:00,
2013-09-03 12:06:00,71.5,56.4,29.74,NE,45,2.0,-999.0,59,0.00,,,0.00,772,Wunderground v.1.15,2013-09-03 02:06:00,
2013-09-03 12:10:00,71.6,56.0,29.73,ENE,67,3.0,4.0,58,0.00,,,0.00,756,Wunderground v.1.15,2013-09-03 02:10:00,
2013-09-03 12:11:00,71.5,56.4,29.74,NE,45,2.0,-999.0,59,0.00,,,0.00,772,Wunderground v.1.15,2013-09-03 02:11:00,
2013-09-03 12:15:00,71.1,55.6,29.73,South,185,4.0,4.0,58,0.00,,,0.00,763,Wunderground v.1.15,2013-09-03 02:15:00,
2013-09-03 12:16:00,71.3,56.2,29.73,ENE,68,4.0,-999.0,59,0.00,,,0.00,754,Wunderground v.1.15,2013-09-03 02:16:00,
2013-09-03 12:20:00,71.4,55.9,29.73,ENE,74,4.0,5.0,58,0.00,,,0.00,759,Wunderground v.1.15,2013-09-03 02:20:00,
2013-09-03 12:21:00,71.3,56.2,29.73,ENE,68,4.0,-999.0,59,0.00,,,0.00,754,Wunderground v.1.15,2013-09-03 02:21:00,
2013-09-03 12:26:00,71.3,56.2,29.73,ENE,68,4.0,-999.0,59,0.00,,,0.00,754,Wunderground v.1.15,2013-09-03 02:26:00,
2013-09-03 12:30:00,71.2,56.1,29.73,NE,38,4.0,5.0,59,0.00,,,0.00,733,Wunderground v.1.15,2013-09-03 02:30:00,
2013-09-03 12:31:00,71.3,56.2,29.73,ENE,68,4.0,-999.0,59,0.00,,,0.00,754,Wunderground v.1.15,2013-09-03 02:31:00,
2013-09-03 12:35:00,71.2,56.1,29.73,NNE,22,4.0,5.0,59,0.00,,,0.00,729,Wunderground v.1.15,2013-09-03 02:35:00,
2013-09-03 12:36:00,71.3,56.2,29.73,ENE,68,4.0,-999.0,59,0.00,,,0.00,754,Wunderground v.1.15,2013-09-03 02:36:00,
2013-09-03 12:41:00,71.3,56.2,29.73,ENE,68,4.0,-999.0,59,0.00,,,0.00,754,Wunderground v.1.15,2013-09-03 02:41:00,
2013-09-03 12:45:00,71.7,57.1,29.72,East,93,2.0,8.0,60,0.00,,,0.00,722,Wunderground v.1.15,2013-09-03 02:45:00,
2013-09-03 12:46:00,71.7,57.5,29.72,NE,45,3.0,-999.0,61,0.00,,,0.00,718,Wunderground v.1.15,2013-09-03 02:46:00,
2013-09-03 12:50:00,72.1,57.4,29.72,East,80,3.0,3.0,60,0.00,,,0.00,715,Wunderground v.1.15,2013-09-03 02:50:00,
2013-09-03 12:51:00,71.7,57.5,29.72,NE,45,3.0,-999.0,61,0.00,,,0.00,718,Wunderground v.1.15,2013-09-03 02:51:00,
2013-09-03 12:55:00,71.7,57.1,29.72,East,89,3.0,7.0,60,0.00,,,0.00,710,Wunderground v.1.15,2013-09-03 02:55:00,
2013-09-03 12:56:00,71.7,57.5,29.72,NE,45,3.0,-999.0,61,0.00,,,0.00,718,Wunderground v.1.15,2013-09-03 02:56:00,
2013-09-03 13:00:00,71.7,57.5,29.72,NNE,33,3.0,9.0,61,0.00,,,0.00,707,Wunderground v.1.15,2013-09-03 03:00:00,
2013-09-03 13:01:00,71.7,57.5,29.72,NE,45,3.0,-999.0,61,0.00,,,0.00,718,Wunderground v.1.15,2013-09-03 03:01:00,
2013-09-03 13:05:00,72.4,57.7,29.72,NE,55,3.0,9.0,60,0.00,,,0.00,700,Wunderground v.1.15,2013-09-03 03:05:00,
2013-09-03 13:06:00,71.7,57.5,29.72,NE,45,3.0,-999.0,61,0.00,,,0.00,718,Wunderground v.1.15,2013-09-03 03:06:00,
2013-09-03 13:11:00,71.7,57.5,29.72,NE,45,3.0,-999.0,61,0.00,,,0.00,718,Wunderground v.1.15,2013-09-03 03:11:00,
2013-09-03 13:15:00,72.1,57.4,29.71,ENE,76,3.0,3.0,60,0.00,,,0.00,682,Wunderground v.1.15,2013-09-03 03:15:00,
2013-09-03 13:16:00,72.1,57.9,29.71,ENE,68,2.0,-999.0,61,0.00,,,0.00,681,Wunderground v.1.15,2013-09-03 03:16:00,
2013-09-03 13:20:00,71.1,57.0,29.71,NE,38,3.0,3.0,61,0.00,,,0.00,677,Wunderground v.1.15,2013-09-03 03:20:00,
2013-09-03 13:21:00,72.1,57.9,29.71,ENE,68,2.0,-999.0,61,0.00,,,0.00,681,Wunderground v.1.15,2013-09-03 03:21:00,
2013-09-03 13:26:00,72.1,57.9,29.71,ENE,68,2.0,-999.0,61,0.00,,,0.00,681,Wunderground v.1.15,2013-09-03 03:26:00,
2013-09-03 13:30:00,72.1,57.4,29.71,ESE,113,1.0,1.0,60,0.00,,,0.00,661,Wunderground v.1.15,2013-09-03 03:30:00,
2013-09-03 13:31:00,72.1,57.9,29.71,ENE,68,2.0,-999.0,61,0.00,,,0.00,681,Wunderground v.1.15,2013-09-03 03:31:00,
2013-09-03 13:35:00,71.6,57.9,29.71,NNE,30,1.0,1.0,62,0.00,,,0.00,654,Wunderground v.1.15,2013-09-03 03:35:00,
2013-09-03 13:36:00,72.1,57.9,29.71,ENE,68,2.0,-999.0,61,0.00,,,0.00,681,Wunderground v.1.15,2013-09-03 03:36:00,
2013-09-03 13:41:00,72.1,57.9,29.71,ENE,68,2.0,-999.0,61,0.00,,,0.00,681,Wunderground v.1.15,2013-09-03 03:41:00,
2013-09-03 13:45:00,71.9,57.7,29.71,NE,53,2.0,2.0,61,0.00,,,0.00,636,Wunderground v.1.15,2013-09-03 03:45:00,
2013-09-03 13:46:00,71.7,58.4,29.70,ENE,68,2.0,-999.0,63,0.00,,,0.00,632,Wunderground v.1.15,2013-09-03 03:46:00,
2013-09-03 13:50:00,71.6,58.3,29.71,NNE,27,3.0,3.0,63,0.00,,,0.00,628,Wunderground v.1.15,2013-09-03 03:50:00,
2013-09-03 13:51:00,71.7,58.4,29.70,ENE,68,2.0,-999.0,63,0.00,,,0.00,632,Wunderground v.1.15,2013-09-03 03:51:00,
2013-09-03 13:55:00,71.3,58.1,29.71,NE,39,3.0,3.0,63,0.00,,,0.00,617,Wunderground v.1.15,2013-09-03 03:55:00,
2013-09-03 13:56:00,71.7,58.4,29.70,ENE,68,2.0,-999.0,63,0.00,,,0.00,632,Wunderground v.1.15,2013-09-03 03:56:00,
2013-09-03 14:00:00,70.9,58.1,29.70,NNE,32,3.0,3.0,64,0.00,,,0.00,606,Wunderground v.1.15,2013-09-03 04:00:00,
2013-09-03 14:01:00,71.7,58.4,29.70,ENE,68,2.0,-999.0,63,0.00,,,0.00,632,Wunderground v.1.15,2013-09-03 04:01:00,
2013-09-03 14:05:00,71.1,57.9,29.70,ENE,73,3.0,8.0,63,0.00,,,0.00,594,Wunderground v.1.15,2013-09-03 04:05:00,
2013-09-03 14:06:00,71.7,58.4,29.70,ENE,68,2.0,-999.0,63,0.00,,,0.00,632,Wunderground v.1.15,2013-09-03 04:06:00,
2013-09-03 14:10:00,70.8,58.9,29.70,NE,46,4.0,4.0,66,0.00,,,0.00,582,Wunderground v.1.15,2013-09-03 04:10:00,
2013-09-03 14:11:00,71.7,58.4,29.70,ENE,68,2.0,-999.0,63,0.00,,,0.00,632,Wunderground v.1.15,2013-09-03 04:11:00,
2013-09-03 14:15:00,70.5,58.2,29.70,East,98,4.0,4.0,65,0.00,,,0.00,571,Wunderground v.1.15,2013-09-03 04:15:00,
2013-09-03 14:16:00,70.6,58.7,29.70,NE,45,3.0,-999.0,66,0.00,,,0.00,564,Wunderground v.1.15,2013-09-03 04:16:00,
2013-09-03 14:21:00,70.6,58.7,29.70,NE,45,3.0,-999.0,66,0.00,,,0.00,564,Wunderground v.1.15,2013-09-03 04:21:00,
2013-09-03 14:25:00,70.6,58.7,29.70,WNW,283,3.0,4.0,66,0.00,,,0.00,545,Wunderground v.1.15,2013-09-03 04:25:00,
2013-09-03 14:26:00,70.6,58.7,29.70,NE,45,3.0,-999.0,66,0.00,,,0.00,564,Wunderground v.1.15,2013-09-03 04:26:00,
2013-09-03 14:31:00,70.6,58.7,29.70,NE,45,3.0,-999.0,66,0.00,,,0.00,564,Wunderground v.1.15,2013-09-03 04:31:00,
2013-09-03 14:35:00,70.2,58.3,29.70,NW,317,2.0,3.0,66,0.00,,,0.00,520,Wunderground v.1.15,2013-09-03 04:35:00,
2013-09-03 14:36:00,70.6,58.7,29.70,NE,45,3.0,-999.0,66,0.00,,,0.00,564,Wunderground v.1.15,2013-09-03 04:36:00,
2013-09-03 14:41:00,70.6,58.7,29.70,NE,45,3.0,-999.0,66,0.00,,,0.00,564,Wunderground v.1.15,2013-09-03 04:41:00,
2013-09-03 14:45:00,71.5,59.1,29.69,NE,34,1.0,3.0,65,0.00,,,0.00,494,Wunderground v.1.15,2013-09-03 04:45:00,
2013-09-03 14:46:00,70.8,58.4,29.69,ENE,68,2.0,-999.0,65,0.00,,,0.00,487,Wunderground v.1.15,2013-09-03 04:46:00,
2013-09-03 14:50:00,71.4,58.1,29.69,NE,49,3.0,5.0,63,0.00,,,0.00,480,Wunderground v.1.15,2013-09-03 04:50:00,
2013-09-03 14:51:00,70.8,58.4,29.69,ENE,68,2.0,-999.0,65,0.00,,,0.00,487,Wunderground v.1.15,2013-09-03 04:51:00,
2013-09-03 14:55:00,70.7,57.9,29.69,SE,125,3.0,5.0,64,0.00,,,0.00,466,Wunderground v.1.15,2013-09-03 04:55:00,
2013-09-03 14:56:00,70.8,58.4,29.69,ENE,68,2.0,-999.0,65,0.00,,,0.00,487,Wunderground v.1.15,2013-09-03 04:56:00,
2013-09-03 15:00:00,70.3,57.5,29.69,NNE,22,2.0,2.0,64,0.00,,,0.00,454,Wunderground v.1.15,2013-09-03 05:00:00,
2013-09-03 15:01:00,70.8,58.4,29.69,ENE,68,2.0,-999.0,65,0.00,,,0.00,487,Wunderground v.1.15,2013-09-03 05:01:00,
2013-09-03 15:05:00,70.5,57.7,29.69,ENE,75,2.0,7.0,64,0.00,,,0.00,441,Wunderground v.1.15,2013-09-03 05:05:00,
2013-09-03 15:06:00,70.8,58.4,29.69,ENE,68,2.0,-999.0,65,0.00,,,0.00,487,Wunderground v.1.15,2013-09-03 05:06:00,
2013-09-03 15:10:00,70.3,58.4,29.69,East,89,3.0,3.0,66,0.00,,,0.00,425,Wunderground v.1.15,2013-09-03 05:10:00,
2013-09-03 15:11:00,70.8,58.4,29.69,ENE,68,2.0,-999.0,65,0.00,,,0.00,487,Wunderground v.1.15,2013-09-03 05:11:00,
2013-09-03 15:16:00,70.2,57.9,29.70,ENE,68,3.0,-999.0,65,0.00,,,0.00,402,Wunderground v.1.15,2013-09-03 05:16:00,
2013-09-03 15:20:00,70.5,58.2,29.69,SSE,153,3.0,3.0,65,0.00,,,0.00,390,Wunderground v.1.15,2013-09-03 05:20:00,
2013-09-03 15:21:00,70.2,57.9,29.70,ENE,68,3.0,-999.0,65,0.00,,,0.00,402,Wunderground v.1.15,2013-09-03 05:21:00,
2013-09-03 15:26:00,70.2,57.9,29.70,ENE,68,3.0,-999.0,65,0.00,,,0.00,402,Wunderground v.1.15,2013-09-03 05:26:00,
2013-09-03 15:30:00,69.7,57.4,29.70,NE,38,2.0,2.0,65,0.00,,,0.00,364,Wunderground v.1.15,2013-09-03 05:30:00,
2013-09-03 15:31:00,70.2,57.9,29.70,ENE,68,3.0,-999.0,65,0.00,,,0.00,402,Wunderground v.1.15,2013-09-03 05:31:00,
2013-09-03 15:36:00,70.2,57.9,29.70,ENE,68,3.0,-999.0,65,0.00,,,0.00,402,Wunderground v.1.15,2013-09-03 05:36:00,
2013-09-03 15:40:00,69.0,58.0,29.69,North,360,2.0,2.0,68,0.00,,,0.00,332,Wunderground v.1.15,2013-09-03 05:40:00,
2013-09-03 15:41:00,70.2,57.9,29.70,ENE,68,3.0,-999.0,65,0.00,,,0.00,402,Wunderground v.1.15,2013-09-03 05:41:00,
2013-09-03 15:45:00,69.4,58.4,29.70,NE,52,2.0,2.0,68,0.00,,,0.00,315,Wunderground v.1.15,2013-09-03 05:45:00,
2013-09-03 15:46:00,69.4,58.4,29.70,NE,45,2.0,-999.0,68,0.00,,,0.00,307,Wunderground v.1.15,2013-09-03 05:46:00,
2013-09-03 15:51:00,69.4,58.4,29.70,NE,45,2.0,-999.0,68,0.00,,,0.00,307,Wunderground v.1.15,2013-09-03 05:51:00,
2013-09-03 15:55:00,69.3,58.3,29.70,ENE,77,1.0,2.0,68,0.00,,,0.00,283,Wunderground v.1.15,2013-09-03 05:55:00,
2013-09-03 15:56:00,69.4,58.4,29.70,NE,45,2.0,-999.0,68,0.00,,,0.00,307,Wunderground v.1.15,2013-09-03 05:56:00,
2013-09-03 16:00:00,69.4,58.4,29.70,NNW,332,2.0,2.0,68,0.00,,,0.00,265,Wunderground v.1.15,2013-09-03 06:00:00,
2013-09-03 16:01:00,69.4,58.4,29.70,NE,45,2.0,-999.0,68,0.00,,,0.00,307,Wunderground v.1.15,2013-09-03 06:01:00,
2013-09-03 16:05:00,69.7,58.3,29.70,NW,324,1.0,2.0,67,0.00,,,0.00,250,Wunderground v.1.15,2013-09-03 06:05:00,
2013-09-03 16:06:00,69.4,58.4,29.70,NE,45,2.0,-999.0,68,0.00,,,0.00,307,Wunderground v.1.15,2013-09-03 06:06:00,
2013-09-03 16:10:00,69.6,58.2,29.70,NE,50,1.0,1.0,67,0.00,,,0.00,230,Wunderground v.1.15,2013-09-03 06:10:00,
2013-09-03 16:11:00,69.4,58.4,29.70,NE,45,2.0,-999.0,68,0.00,,,0.00,307,Wunderground v.1.15,2013-09-03 06:11:00,
2013-09-03 16:16:00,69.2,58.2,29.70,NE,45,1.0,-999.0,68,0.00,,,0.00,210,Wunderground v.1.15,2013-09-03 06:16:00,
2013-09-03 16:20:00,68.9,57.5,29.70,NW,313,1.0,2.0,67,0.00,,,0.00,202,Wunderground v.1.15,2013-09-03 06:20:00,
2013-09-03 16:21:00,69.2,58.2,29.70,NE,45,1.0,-999.0,68,0.00,,,0.00,210,Wunderground v.1.15,2013-09-03 06:21:00,
2013-09-03 16:25:00,68.9,57.5,29.70,East,85,1.0,2.0,67,0.00,,,0.00,186,Wunderground v.1.15,2013-09-03 06:25:00,
2013-09-03 16:26:00,69.2,58.2,29.70,NE,45,1.0,-999.0,68,0.00,,,0.00,210,Wunderground v.1.15,2013-09-03 06:26:00,
2013-09-03 16:30:00,68.7,57.7,29.70,NNW,336,1.0,1.0,68,0.00,,,0.00,169,Wunderground v.1.15,2013-09-03 06:30:00,
2013-09-03 16:31:00,69.2,58.2,29.70,NE,45,1.0,-999.0,68,0.00,,,0.00,210,Wunderground v.1.15,2013-09-03 06:31:00,
2013-09-03 16:36:00,69.2,58.2,29.70,NE,45,1.0,-999.0,68,0.00,,,0.00,210,Wunderground v.1.15,2013-09-03 06:36:00,
2013-09-03 16:40:00,68.2,57.6,29.70,SSE,159,1.0,1.0,69,0.00,,,0.00,137,Wunderground v.1.15,2013-09-03 06:40:00,
2013-09-03 16:41:00,69.2,58.2,29.70,NE,45,1.0,-999.0,68,0.00,,,0.00,210,Wunderground v.1.15,2013-09-03 06:41:00,
2013-09-03 16:45:00,68.0,57.4,29.71,East,80,1.0,1.0,69,0.00,,,0.00,125,Wunderground v.1.15,2013-09-03 06:45:00,
2013-09-03 16:46:00,67.8,57.7,29.71,NE,45,1.0,-999.0,70,0.00,,,0.00,115,Wunderground v.1.15,2013-09-03 06:46:00,
2013-09-03 16:50:00,67.3,57.2,29.71,SSE,162,1.0,2.0,70,0.00,,,0.00,107,Wunderground v.1.15,2013-09-03 06:50:00,
2013-09-03 16:51:00,67.8,57.7,29.71,NE,45,1.0,-999.0,70,0.00,,,0.00,115,Wunderground v.1.15,2013-09-03 06:51:00,
2013-09-03 16:55:00,67.3,57.6,29.71,SSE,153,2.0,2.0,71,0.00,,,0.00,90,Wunderground v.1.15,2013-09-03 06:55:00,
2013-09-03 16:56:00,67.8,57.7,29.71,NE,45,1.0,-999.0,70,0.00,,,0.00,115,Wunderground v.1.15,2013-09-03 06:56:00,
2013-09-03 17:01:00,67.8,57.7,29.71,NE,45,1.0,-999.0,70,0.00,,,0.00,115,Wunderground v.1.15,2013-09-03 07:01:00,
2013-09-03 17:05:00,67.2,57.1,29.71,West,259,1.0,3.0,70,0.00,,,0.00,58,Wunderground v.1.15,2013-09-03 07:05:00,
2013-09-03 17:06:00,67.8,57.7,29.71,NE,45,1.0,-999.0,70,0.00,,,0.00,115,Wunderground v.1.15,2013-09-03 07:06:00,
2013-09-03 17:10:00,67.1,57.0,29.71,NE,46,1.0,1.0,70,0.00,,,0.00,39,Wunderground v.1.15,2013-09-03 07:10:00,
2013-09-03 17:11:00,67.8,57.7,29.71,NE,45,1.0,-999.0,70,0.00,,,0.00,115,Wunderground v.1.15,2013-09-03 07:11:00,
2013-09-03 17:15:00,67.0,57.3,29.71,NE,46,0.0,1.0,71,0.00,,,0.00,25,Wunderground v.1.15,2013-09-03 07:15:00,
2013-09-03 17:16:00,66.8,57.9,29.71,NE,45,0.0,-999.0,73,0.00,,,0.00,29,Wunderground v.1.15,2013-09-03 07:16:00,
2013-09-03 17:21:00,66.8,57.9,29.71,NE,45,0.0,-999.0,73,0.00,,,0.00,29,Wunderground v.1.15,2013-09-03 07:21:00,
2013-09-03 17:25:00,66.4,57.1,29.71,NNE,27,0.0,1.0,72,0.00,,,0.00,14,Wunderground v.1.15,2013-09-03 07:25:00,
2013-09-03 17:26:00,66.8,57.9,29.71,NE,45,0.0,-999.0,73,0.00,,,0.00,29,Wunderground v.1.15,2013-09-03 07:26:00,
2013-09-03 17:30:00,66.1,57.2,29.71,NE,55,0.0,0.0,73,0.00,,,0.00,11,Wunderground v.1.15,2013-09-03 07:30:00,
2013-09-03 17:31:00,66.8,57.9,29.71,NE,45,0.0,-999.0,73,0.00,,,0.00,29,Wunderground v.1.15,2013-09-03 07:31:00,
2013-09-03 17:36:00,66.8,57.9,29.71,NE,45,0.0,-999.0,73,0.00,,,0.00,29,Wunderground v.1.15,2013-09-03 07:36:00,
2013-09-03 17:40:00,65.4,56.9,29.71,South,171,1.0,1.0,74,0.00,,,0.00,0,Wunderground v.1.15,2013-09-03 07:40:00,
2013-09-03 17:41:00,66.8,57.9,29.71,NE,45,0.0,-999.0,73,0.00,,,0.00,29,Wunderground v.1.15,2013-09-03 07:41:00,
2013-09-03 17:45:00,65.1,57.0,29.71,North,9,0.0,1.0,75,0.00,,,0.00,0,Wunderground v.1.15,2013-09-03 07:45:00,
2013-09-03 17:46:00,64.9,57.2,29.72,ENE,68,0.0,-999.0,76,0.00,,,0.00,1,Wunderground v.1.15,2013-09-03 07:46:00,
2013-09-03 17:50:00,64.7,56.6,29.71,North,360,0.0,0.0,75,0.00,,,0.00,0,Wunderground v.1.15,2013-09-03 07:50:00,
2013-09-03 17:51:00,64.9,57.2,29.72,ENE,68,0.0,-999.0,76,0.00,,,0.00,1,Wunderground v.1.15,2013-09-03 07:51:00,
2013-09-03 17:55:00,64.4,56.3,29.71,SE,134,0.0,1.0,75,0.00,,,0.00,0,Wunderground v.1.15,2013-09-03 07:55:00,
2013-09-03 17:56:00,64.9,57.2,29.72,ENE,68,0.0,-999.0,76,0.00,,,0.00,1,Wunderground v.1.15,2013-09-03 07:56:00,
2013-09-03 18:01:00,64.9,57.2,29.72,ENE,68,0.0,-999.0,76,0.00,,,0.00,1,Wunderground v.1.15,2013-09-03 08:01:00,
2013-09-03 18:05:00,63.9,56.2,29.72,North,11,1.0,1.0,76,0.00,,,0.00,0,Wunderground v.1.15,2013-09-03 08:05:00,
2013-09-03 18:06:00,64.9,57.2,29.72,ENE,68,0.0,-999.0,76,0.00,,,0.00,1,Wunderground v.1.15,2013-09-03 08:06:00,
2013-09-03 18:10:00,63.7,56.4,29.72,East,81,0.0,0.0,77,0.00,,,0.00,0,Wunderground v.1.15,2013-09-03 08:10:00,
2013-09-03 18:11:00,64.9,57.2,29.72,ENE,68,0.0,-999.0,76,0.00,,,0.00,1,Wunderground v.1.15,2013-09-03 08:11:00,
2013-09-03 18:15:00,63.6,56.3,29.72,ENE,63,0.0,0.0,77,0.00,,,0.00,0,Wunderground v.1.15,2013-09-03 08:15:00,
2013-09-03 18:16:00,63.5,56.2,29.72,NE,45,1.0,-999.0,77,0.00,,,0.00,0,Wunderground v.1.15,2013-09-03 08:16:00,
2013-09-03 18:21:00,63.5,56.2,29.72,NE,45,1.0,-999.0,77,0.00,,,0.00,0,Wunderground v.1.15,2013-09-03 08:21:00,
2013-09-03 18:25:00,63.3,56.0,29.72,NE,49,1.0,1.0,77,0.00,,,0.00,0,Wunderground v.1.15,2013-09-03 08:25:00,
2013-09-03 18:26:00,63.5,56.2,29.72,NE,45,1.0,-999.0,77,0.00,,,0.00,0,Wunderground v.1.15,2013-09-03 08:26:00,
2013-09-03 18:30:00,63.2,56.2,29.72,East,97,1.0,1.0,78,0.00,,,0.00,0,Wunderground v.1.15,2013-09-03 08:30:00,
2013-09-03 18:31:00,63.5,56.2,29.72,NE,45,1.0,-999.0,77,0.00,,,0.00,0,Wunderground v.1.15,2013-09-03 08:31:00,
2013-09-03 18:36:00,63.5,56.2,29.72,NE,45,1.0,-999.0,77,0.00,,,0.00,0,Wunderground v.1.15,2013-09-03 08:36:00,
2013-09-03 18:40:00,63.1,56.1,29.72,ENE,61,1.0,1.0,78,0.00,,,0.00,0,Wunderground v.1.15,2013-09-03 08:40:00,
2013-09-03 18:41:00,63.5,56.2,29.72,NE,45,1.0,-999.0,77,0.00,,,0.00,0,Wunderground v.1.15,2013-09-03 08:41:00,
2013-09-03 18:46:00,62.9,56.3,29.73,ENE,68,1.0,-999.0,79,0.00,,,0.00,0,Wunderground v.1.15,2013-09-03 08:46:00,
2013-09-03 18:50:00,62.8,55.8,29.73,ENE,66,1.0,1.0,78,0.00,,,0.00,0,Wunderground v.1.15,2013-09-03 08:50:00,
2013-09-03 18:51:00,62.9,56.3,29.73,ENE,68,1.0,-999.0,79,0.00,,,0.00,0,Wunderground v.1.15,2013-09-03 08:51:00,
2013-09-03 18:55:00,62.6,56.0,29.73,NE,51,1.0,1.0,79,0.00,,,0.00,0,Wunderground v.1.15,2013-09-03 08:55:00,
2013-09-03 18:56:00,62.9,56.3,29.73,ENE,68,1.0,-999.0,79,0.00,,,0.00,0,Wunderground v.1.15,2013-09-03 08:56:00,
2013-09-03 19:00:00,62.7,56.1,29.73,ENE,67,1.0,1.0,79,0.00,,,0.00,0,Wunderground v.1.15,2013-09-03 09:00:00,
2013-09-03 19:01:00,62.9,56.3,29.73,ENE,68,1.0,-999.0,79,0.00,,,0.00,0,Wunderground v.1.15,2013-09-03 09:01:00,
2013-09-03 19:05:00,62.6,56.0,29.73,SSE,148,1.0,1.0,79,0.00,,,0.00,0,Wunderground v.1.15,2013-09-03 09:05:00,
2013-09-03 19:06:00,62.9,56.3,29.73,ENE,68,1.0,-999.0,79,0.00,,,0.00,0,Wunderground v.1.15,2013-09-03 09:06:00,
2013-09-03 19:11:00,62.9,56.3,29.73,ENE,68,1.0,-999.0,79,0.00,,,0.00,0,Wunderground v.1.15,2013-09-03 09:11:00,
2013-09-03 19:15:00,62.4,55.8,29.73,NE,44,0.0,0.0,79,0.00,,,0.00,0,Wunderground v.1.15,2013-09-03 09:15:00,
2013-09-03 19:16:00,62.4,56.1,29.73,NE,45,0.0,-999.0,80,0.00,,,0.00,0,Wunderground v.1.15,2013-09-03 09:16:00,
2013-09-03 19:20:00,62.3,55.7,29.73,NE,45,0.0,1.0,79,0.00,,,0.00,0,Wunderground v.1.15,2013-09-03 09:20:00,
2013-09-03 19:21:00,62.4,56.1,29.73,NE,45,0.0,-999.0,80,0.00,,,0.00,0,Wunderground v.1.15,2013-09-03 09:21:00,
2013-09-03 19:25:00,62.2,56.0,29.73,NE,56,1.0,1.0,80,0.00,,,0.00,0,Wunderground v.1.15,2013-09-03 09:25:00,
2013-09-03 19:26:00,62.4,56.1,29.73,NE,45,0.0,-999.0,80,0.00,,,0.00,0,Wunderground v.1.15,2013-09-03 09:26:00,
2013-09-03 19:30:00,62.1,55.9,29.73,ENE,69,1.0,1.0,80,0.00,,,0.00,0,Wunderground v.1.15,2013-09-03 09:30:00,
2013-09-03 19:31:00,62.4,56.1,29.73,NE,45,0.0,-999.0,80,0.00,,,0.00,0,Wunderground v.1.15,2013-09-03 09:31:00,
2013-09-03 19:36:00,62.4,56.1,29.73,NE,45,0.0,-999.0,80,0.00,,,0.00,0,Wunderground v.1.15,2013-09-03 09:36:00,
2013-09-03 19:40:00,62.2,56.0,29.74,ESE,110,1.0,1.0,80,0.00,,,0.00,0,Wunderground v.1.15,2013-09-03 09:40:00,
2013-09-03 19:41:00,62.4,56.1,29.73,NE,45,0.0,-999.0,80,0.00,,,0.00,0,Wunderground v.1.15,2013-09-03 09:41:00,
2013-09-03 19:46:00,62.1,55.5,29.74,ENE,68,1.0,-999.0,79,0.00,,,0.00,0,Wunderground v.1.15,2013-09-03 09:46:00,
2013-09-03 19:50:00,62.1,55.9,29.74,ENE,71,1.0,1.0,80,0.00,,,0.00,0,Wunderground v.1.15,2013-09-03 09:50:00,
2013-09-03 19:51:00,62.1,55.5,29.74,ENE,68,1.0,-999.0,79,0.00,,,0.00,0,Wunderground v.1.15,2013-09-03 09:51:00,
2013-09-03 19:55:00,62.1,55.9,29.74,ENE,66,1.0,1.0,80,0.00,,,0.00,0,Wunderground v.1.15,2013-09-03 09:55:00,
2013-09-03 19:56:00,62.1,55.5,29.74,ENE,68,1.0,-999.0,79,0.00,,,0.00,0,Wunderground v.1.15,2013-09-03 09:56:00,
2013-09-03 20:01:00,62.1,55.5,29.74,ENE,68,1.0,-999.0,79,0.00,,,0.00,0,Wunderground v.1.15,2013-09-03 10:01:00,
2013-09-03 20:05:00,62.2,55.6,29.74,East,88,1.0,3.0,79,0.00,,,0.00,0,Wunderground v.1.15,2013-09-03 10:05:00,
2013-09-03 20:06:00,62.1,55.5,29.74,ENE,68,1.0,-999.0,79,0.00,,,0.00,0,Wunderground v.1.15,2013-09-03 10:06:00,
2013-09-03 20:10:00,62.3,55.7,29.74,NE,55,2.0,2.0,79,0.00,,,0.00,0,Wunderground v.1.15,2013-09-03 10:10:00,
2013-09-03 20:11:00,62.1,55.5,29.74,ENE,68,1.0,-999.0,79,0.00,,,0.00,0,Wunderground v.1.15,2013-09-03 10:11:00,
2013-09-03 20:15:00,62.4,55.8,29.74,ENE,73,2.0,2.0,79,0.00,,,0.00,0,Wunderground v.1.15,2013-09-03 10:15:00,
2013-09-03 20:16:00,62.4,55.8,29.75,ENE,68,2.0,-999.0,79,0.00,,,0.00,0,Wunderground v.1.15,2013-09-03 10:16:00,
2013-09-03 20:20:00,62.5,55.9,29.74,ENE,61,2.0,2.0,79,0.00,,,0.00,0,Wunderground v.1.15,2013-09-03 10:20:00,
2013-09-03 20:21:00,62.4,55.8,29.75,ENE,68,2.0,-999.0,79,0.00,,,0.00,0,Wunderground v.1.15,2013-09-03 10:21:00,
2013-09-03 20:26:00,62.4,55.8,29.75,ENE,68,2.0,-999.0,79,0.00,,,0.00,0,Wunderground v.1.15,2013-09-03 10:26:00,
2013-09-03 20:30:00,62.6,56.0,29.75,NNE,30,2.0,2.0,79,0.00,,,0.00,0,Wunderground v.1.15,2013-09-03 10:30:00,
2013-09-03 20:31:00,62.4,55.8,29.75,ENE,68,2.0,-999.0,79,0.00,,,0.00,0,Wunderground v.1.15,2013-09-03 10:31:00,
2013-09-03 20:36:00,62.4,55.8,29.75,ENE,68,2.0,-999.0,79,0.00,,,0.00,0,Wunderground v.1.15,2013-09-03 10:36:00,
2013-09-03 20:40:00,62.5,55.9,29.74,ENE,71,1.0,5.0,79,0.00,,,0.00,0,Wunderground v.1.15,2013-09-03 10:40:00,
2013-09-03 20:41:00,62.4,55.8,29.75,ENE,68,2.0,-999.0,79,0.00,,,0.00,0,Wunderground v.1.15,2013-09-03 10:41:00,
2013-09-03 20:45:00,62.4,56.1,29.74,ENE,63,1.0,5.0,80,0.00,,,0.00,0,Wunderground v.1.15,2013-09-03 10:45:00,
2013-09-03 20:46:00,62.4,56.1,29.75,ENE,68,1.0,-999.0,80,0.00,,,0.00,0,Wunderground v.1.15,2013-09-03 10:46:00,
2013-09-03 20:50:00,62.3,56.0,29.75,NE,56,1.0,1.0,80,0.00,,,0.00,0,Wunderground v.1.15,2013-09-03 10:50:00,
2013-09-03 20:51:00,62.4,56.1,29.75,ENE,68,1.0,-999.0,80,0.00,,,0.00,0,Wunderground v.1.15,2013-09-03 10:51:00,
2013-09-03 20:55:00,62.2,56.0,29.75,NNE,17,1.0,1.0,80,0.00,,,0.00,0,Wunderground v.1.15,2013-09-03 10:55:00,
2013-09-03 20:56:00,62.4,56.1,29.75,ENE,68,1.0,-999.0,80,0.00,,,0.00,0,Wunderground v.1.15,2013-09-03 10:56:00,
2013-09-03 21:01:00,62.4,56.1,29.75,ENE,68,1.0,-999.0,80,0.00,,,0.00,0,Wunderground v.1.15,2013-09-03 11:01:00,
2013-09-03 21:05:00,62.1,55.9,29.75,NE,42,1.0,3.0,80,0.00,,,0.00,0,Wunderground v.1.15,2013-09-03 11:05:00,
2013-09-03 21:06:00,62.4,56.1,29.75,ENE,68,1.0,-999.0,80,0.00,,,0.00,0,Wunderground v.1.15,2013-09-03 11:06:00,
2013-09-03 21:10:00,62.0,55.8,29.75,NE,37,1.0,1.0,80,0.00,,,0.00,0,Wunderground v.1.15,2013-09-03 11:10:00,
2013-09-03 21:11:00,62.4,56.1,29.75,ENE,68,1.0,-999.0,80,0.00,,,0.00,0,Wunderground v.1.15,2013-09-03 11:11:00,
2013-09-03 21:15:00,62.0,55.8,29.75,NE,49,2.0,2.0,80,0.00,,,0.00,0,Wunderground v.1.15,2013-09-03 11:15:00,
2013-09-03 21:16:00,61.9,55.7,29.75,NE,45,1.0,-999.0,80,0.00,,,0.00,0,Wunderground v.1.15,2013-09-03 11:16:00,
2013-09-03 21:20:00,61.9,55.7,29.75,ENE,64,1.0,1.0,80,0.00,,,0.00,0,Wunderground v.1.15,2013-09-03 11:20:00,
2013-09-03 21:21:00,61.9,55.7,29.75,NE,45,1.0,-999.0,80,0.00,,,0.00,0,Wunderground v.1.15,2013-09-03 11:21:00,
2013-09-03 21:26:00,61.9,55.7,29.75,NE,45,1.0,-999.0,80,0.00,,,0.00,0,Wunderground v.1.15,2013-09-03 11:26:00,
2013-09-03 21:30:00,61.7,55.5,29.75,ENE,58,1.0,1.0,80,0.00,,,0.00,0,Wunderground v.1.15,2013-09-03 11:30:00,
2013-09-03 21:31:00,61.9,55.7,29.75,NE,45,1.0,-999.0,80,0.00,,,0.00,0,Wunderground v.1.15,2013-09-03 11:31:00,
2013-09-03 21:35:00,61.4,55.2,29.75,NE,36,1.0,1.0,80,0.00,,,0.00,0,Wunderground v.1.15,2013-09-03 11:35:00,
2013-09-03 21:36:00,61.9,55.7,29.75,NE,45,1.0,-999.0,80,0.00,,,0.00,0,Wunderground v.1.15,2013-09-03 11:36:00,
2013-09-03 21:41:00,61.9,55.7,29.75,NE,45,1.0,-999.0,80,0.00,,,0.00,0,Wunderground v.1.15,2013-09-03 11:41:00,
2013-09-03 21:45:00,61.1,54.9,29.75,NNE,33,1.0,1.0,80,0.00,,,0.00,0,Wunderground v.1.15,2013-09-03 11:45:00,
2013-09-03 21:46:00,61.1,54.9,29.74,NNE,23,1.0,-999.0,80,0.00,,,0.00,0,Wunderground v.1.15,2013-09-03 11:46:00,
2013-09-03 21:50:00,61.0,54.8,29.75,NE,42,1.0,1.0,80,0.00,,,0.00,0,Wunderground v.1.15,2013-09-03 11:50:00,
2013-09-03 21:51:00,61.1,54.9,29.74,NNE,23,1.0,-999.0,80,0.00,,,0.00,0,Wunderground v.1.15,2013-09-03 11:51:00,
2013-09-03 21:55:00,61.0,54.8,29.75,East,82,1.0,1.0,80,0.00,,,0.00,0,Wunderground v.1.15,2013-09-03 11:55:00,
2013-09-03 21:56:00,61.1,54.9,29.74,NNE,23,1.0,-999.0,80,0.00,,,0.00,0,Wunderground v.1.15,2013-09-03 11:56:00,
2013-09-03 22:01:00,61.1,54.9,29.74,NNE,23,1.0,-999.0,80,0.00,,,0.00,0,Wunderground v.1.15,2013-09-03 12:01:00,
2013-09-03 22:05:00,60.9,54.7,29.74,NNE,26,1.0,5.0,80,0.00,,,0.00,0,Wunderground v.1.15,2013-09-03 12:05:00,
2013-09-03 22:06:00,61.1,54.9,29.74,NNE,23,1.0,-999.0,80,0.00,,,0.00,0,Wunderground v.1.15,2013-09-03 12:06:00,
2013-09-03 22:10:00,60.8,54.6,29.74,NNE,30,1.0,1.0,80,0.00,,,0.00,0,Wunderground v.1.15,2013-09-03 12:10:00,
2013-09-03 22:11:00,61.1,54.9,29.74,NNE,23,1.0,-999.0,80,0.00,,,0.00,0,Wunderground v.1.15,2013-09-03 12:11:00,
2013-09-03 22:15:00,60.8,54.6,29.74,NE,42,2.0,2.0,80,0.00,,,0.00,0,Wunderground v.1.15,2013-09-03 12:15:00,
2013-09-03 22:16:00,60.8,54.2,29.74,NNE,23,2.0,-999.0,79,0.00,,,0.00,0,Wunderground v.1.15,2013-09-03 12:16:00,
2013-09-03 22:20:00,60.8,54.2,29.74,NNE,24,2.0,2.0,79,0.00,,,0.00,0,Wunderground v.1.15,2013-09-03 12:20:00,
2013-09-03 22:21:00,60.8,54.2,29.74,NNE,23,2.0,-999.0,79,0.00,,,0.00,0,Wunderground v.1.15,2013-09-03 12:21:00,
2013-09-03 22:25:00,60.7,54.5,29.74,NNE,18,1.0,2.0,80,0.00,,,0.00,0,Wunderground v.1.15,2013-09-03 12:25:00,
2013-09-03 22:26:00,60.8,54.2,29.74,NNE,23,2.0,-999.0,79,0.00,,,0.00,0,Wunderground v.1.15,2013-09-03 12:26:00,
2013-09-03 22:31:00,60.8,54.2,29.74,NNE,23,2.0,-999.0,79,0.00,,,0.00,0,Wunderground v.1.15,2013-09-03 12:31:00,
2013-09-03 22:35:00,60.6,54.0,29.74,NE,51,2.0,4.0,79,0.00,,,0.00,0,Wunderground v.1.15,2013-09-03 12:35:00,
2013-09-03 22:36:00,60.8,54.2,29.74,NNE,23,2.0,-999.0,79,0.00,,,0.00,0,Wunderground v.1.15,2013-09-03 12:36:00,
2013-09-03 22:40:00,60.6,54.0,29.74,NE,39,1.0,1.0,79,0.00,,,0.00,0,Wunderground v.1.15,2013-09-03 12:40:00,
2013-09-03 22:41:00,60.8,54.2,29.74,NNE,23,2.0,-999.0,79,0.00,,,0.00,0,Wunderground v.1.15,2013-09-03 12:41:00,
2013-09-03 22:46:00,60.5,54.3,29.74,NE,45,1.0,-999.0,80,0.00,,,0.00,0,Wunderground v.1.15,2013-09-03 12:46:00,
2013-09-03 22:50:00,60.5,54.0,29.74,NNE,32,1.0,1.0,79,0.00,,,0.00,0,Wunderground v.1.15,2013-09-03 12:50:00,
2013-09-03 22:51:00,60.5,54.3,29.74,NE,45,1.0,-999.0,80,0.00,,,0.00,0,Wunderground v.1.15,2013-09-03 12:51:00,
2013-09-03 22:55:00,60.4,54.2,29.74,NE,43,1.0,3.0,80,0.00,,,0.00,0,Wunderground v.1.15,2013-09-03 12:55:00,
2013-09-03 22:56:00,60.5,54.3,29.74,NE,45,1.0,-999.0,80,0.00,,,0.00,0,Wunderground v.1.15,2013-09-03 12:56:00,
2013-09-03 23:01:00,60.5,54.3,29.74,NE,45,1.0,-999.0,80,0.00,,,0.00,0,Wunderground v.1.15,2013-09-03 13:01:00,
2013-09-03 23:06:00,60.5,54.3,29.74,NE,45,1.0,-999.0,80,0.00,,,0.00,0,Wunderground v.1.15,2013-09-03 13:06:00,
2013-09-03 23:11:00,60.5,54.3,29.74,NE,45,1.0,-999.0,80,0.00,,,0.00,0,Wunderground v.1.15,2013-09-03 13:11:00,
2013-09-03 23:16:00,60.1,54.2,29.73,NE,45,1.0,-999.0,81,0.00,,,0.00,0,Wunderground v.1.15,2013-09-03 13:16:00,
2013-09-03 23:21:00,60.1,54.2,29.73,NE,45,1.0,-999.0,81,0.00,,,0.00,0,Wunderground v.1.15,2013-09-03 13:21:00,
2013-09-03 23:26:00,60.1,54.2,29.73,NE,45,1.0,-999.0,81,0.00,,,0.00,0,Wunderground v.1.15,2013-09-03 13:26:00,
2013-09-03 23:31:00,60.1,54.2,29.73,NE,45,1.0,-999.0,81,0.00,,,0.00,0,Wunderground v.1.15,2013-09-03 13:31:00,
2013-09-03 23:36:00,60.1,54.2,29.73,NE,45,1.0,-999.0,81,0.00,,,0.00,0,Wunderground v.1.15,2013-09-03 13:36:00,
2013-09-03 23:41:00,60.1,54.2,29.73,NE,45,1.0,-999.0,81,0.00,,,0.00,0,Wunderground v.1.15,2013-09-03 13:41:00,
2013-09-03 23:46:00,59.0,53.8,29.73,NNE,23,0.0,-999.0,83,0.00,,,0.00,0,Wunderground v.1.15,2013-09-03 13:46:00,
2013-09-03 23:51:00,59.0,53.8,29.73,NNE,23,0.0,-999.0,83,0.00,,,0.00,0,Wunderground v.1.15,2013-09-03 13:51:00,
2013-09-03 23:56:00,59.0,53.8,29.73,NNE,23,0.0,-999.0,83,0.00,,,0.00,0,Wunderground v.1.15,2013-09-03 13:56:00,